sensor_id;sensor_type;location;lat;lon;timestamp;pressure;altitude;pressure_sealevel;temperature;humidity
26376;BME280;30544;42.196;24.336;2023-04-20T00:01:52;98741.50;;;14.19;nan
26376;BME280;30544;42.196;24.336;2023-04-20T00:04:18;98737.91;;;14.13;nan
26376;BME280;30544;42.196;24.336;2023-04-20T00:06:47;98740.41;;;14.09;nan
26376;BME280;30544;42.196;24.336;2023-04-20T00:09:14;98726.44;;;14.25;nan
26376;BME280;30544;42.196;24.336;2023-04-20T00:11:42;98727.59;;;14.08;nan
26376;BME280;30544;42.196;24.336;2023-04-20T00:14:08;98732.03;;;14.09;nan
26376;BME280;30544;42.196;24.336;2023-04-20T00:16:35;98728.72;;;14.02;nan
26376;BME280;30544;42.196;24.336;2023-04-20T00:19:02;98732.38;;;13.98;nan
26376;BME280;30544;42.196;24.336;2023-04-20T00:21:29;98727.06;;;13.91;nan
26376;BME280;30544;42.196;24.336;2023-04-20T00:23:57;98723.72;;;13.94;nan
26376;BME280;30544;42.196;24.336;2023-04-20T00:26:23;98722.03;;;13.98;nan
26376;BME280;30544;42.196;24.336;2023-04-20T00:28:51;98723.75;;;13.79;nan
26376;BME280;30544;42.196;24.336;2023-04-20T00:31:18;98712.03;;;13.77;nan
26376;BME280;30544;42.196;24.336;2023-04-20T00:33:45;98726.25;;;13.75;nan
26376;BME280;30544;42.196;24.336;2023-04-20T00:36:12;98719.00;;;13.84;nan
26376;BME280;30544;42.196;24.336;2023-04-20T00:38:39;98712.31;;;13.80;nan
26376;BME280;30544;42.196;24.336;2023-04-20T00:41:07;98719.88;;;13.65;nan
26376;BME280;30544;42.196;24.336;2023-04-20T00:43:34;98723.75;;;13.59;nan
26376;BME280;30544;42.196;24.336;2023-04-20T00:46:01;98719.59;;;13.51;nan
26376;BME280;30544;42.196;24.336;2023-04-20T00:48:28;98716.22;;;13.59;nan
26376;BME280;30544;42.196;24.336;2023-04-20T00:50:55;98717.91;;;13.65;nan
26376;BME280;30544;42.196;24.336;2023-04-20T00:53:22;98723.19;;;13.51;nan
26376;BME280;30544;42.196;24.336;2023-04-20T00:55:49;98717.34;;;13.63;nan
26376;BME280;30544;42.196;24.336;2023-04-20T00:58:17;98719.00;;;13.59;nan
26376;BME280;30544;42.196;24.336;2023-04-20T01:00:44;98717.34;;;13.58;nan
26376;BME280;30544;42.196;24.336;2023-04-20T01:03:11;98722.63;;;13.54;nan
26376;BME280;30544;42.196;24.336;2023-04-20T01:05:37;98722.06;;;13.42;nan
26376;BME280;30544;42.196;24.336;2023-04-20T01:08:04;98713.16;;;13.55;nan
26376;BME280;30544;42.196;24.336;2023-04-20T01:10:31;98722.06;;;13.42;nan
26376;BME280;30544;42.196;24.336;2023-04-20T01:12:58;98719.31;;;13.27;nan
26376;BME280;30544;42.196;24.336;2023-04-20T01:15:26;98716.25;;;13.34;nan
26376;BME280;30544;42.196;24.336;2023-04-20T01:17:53;98704.53;;;13.32;nan
26376;BME280;30544;42.196;24.336;2023-04-20T01:20:22;98708.16;;;13.22;nan
26376;BME280;30544;42.196;24.336;2023-04-20T01:22:51;98706.41;;;13.06;nan
26376;BME280;30544;42.196;24.336;2023-04-20T01:25:19;98710.84;;;12.86;nan
26376;BME280;30544;42.196;24.336;2023-04-20T01:27:46;98700.59;;;13.02;nan
26376;BME280;30544;42.196;24.336;2023-04-20T01:30:13;98704.19;;;12.98;nan
26376;BME280;30544;42.196;24.336;2023-04-20T01:32:42;98705.84;;;12.88;nan
26376;BME280;30544;42.196;24.336;2023-04-20T01:35:09;98707.78;;;12.93;nan
26376;BME280;30544;42.196;24.336;2023-04-20T01:37:35;98709.75;;;13.03;nan
26376;BME280;30544;42.196;24.336;2023-04-20T01:40:06;98703.88;;;12.89;nan
26376;BME280;30544;42.196;24.336;2023-04-20T01:42:34;98697.75;;;12.92;nan
26376;BME280;30544;42.196;24.336;2023-04-20T01:45:01;98708.31;;;12.75;nan
26376;BME280;30544;42.196;24.336;2023-04-20T01:47:30;98698.63;;;12.98;nan
26376;BME280;30544;42.196;24.336;2023-04-20T01:49:57;98694.16;;;12.91;nan
26376;BME280;30544;42.196;24.336;2023-04-20T01:52:23;98697.72;;;12.67;nan
26376;BME280;30544;42.196;24.336;2023-04-20T01:54:50;98700.81;;;12.90;nan
26376;BME280;30544;42.196;24.336;2023-04-20T01:57:18;98708.66;;;12.93;nan
26376;BME280;30544;42.196;24.336;2023-04-20T01:59:45;98696.41;;;13.00;nan
26376;BME280;30544;42.196;24.336;2023-04-20T02:02:12;98703.09;;;12.99;nan
26376;BME280;30544;42.196;24.336;2023-04-20T02:04:38;98697.75;;;12.87;nan
26376;BME280;30544;42.196;24.336;2023-04-20T02:07:05;98690.31;;;13.13;nan
26376;BME280;30544;42.196;24.336;2023-04-20T02:09:32;98696.41;;;12.94;nan
26376;BME280;30544;42.196;24.336;2023-04-20T02:11:58;98699.19;;;13.00;nan
26376;BME280;30544;42.196;24.336;2023-04-20T02:14:27;98695.63;;;13.19;nan
26376;BME280;30544;42.196;24.336;2023-04-20T02:16:54;98706.22;;;13.28;nan
26376;BME280;30544;42.196;24.336;2023-04-20T02:19:21;98705.38;;;13.32;nan
26376;BME280;30544;42.196;24.336;2023-04-20T02:21:48;98716.53;;;13.32;nan
26376;BME280;30544;42.196;24.336;2023-04-20T02:24:15;98704.81;;;13.25;nan
26376;BME280;30544;42.196;24.336;2023-04-20T02:26:42;98703.44;;;13.28;nan
26376;BME280;30544;42.196;24.336;2023-04-20T02:29:08;98708.72;;;13.34;nan
26376;BME280;30544;42.196;24.336;2023-04-20T02:31:36;98704.81;;;13.30;nan
26376;BME280;30544;42.196;24.336;2023-04-20T02:34:03;98702.00;;;13.15;nan
26376;BME280;30544;42.196;24.336;2023-04-20T02:36:30;98712.00;;;13.06;nan
26376;BME280;30544;42.196;24.336;2023-04-20T02:38:57;98711.78;;;13.28;nan
26376;BME280;30544;42.196;24.336;2023-04-20T02:41:23;98705.38;;;13.42;nan
26376;BME280;30544;42.196;24.336;2023-04-20T02:43:50;98703.13;;;13.24;nan
26376;BME280;30544;42.196;24.336;2023-04-20T02:46:17;98708.41;;;13.25;nan
26376;BME280;30544;42.196;24.336;2023-04-20T02:48:45;98706.75;;;13.24;nan
26376;BME280;30544;42.196;24.336;2023-04-20T02:51:12;98705.91;;;13.14;nan
26376;BME280;30544;42.196;24.336;2023-04-20T02:53:39;98712.56;;;13.13;nan
26376;BME280;30544;42.196;24.336;2023-04-20T02:56:06;98712.63;;;13.28;nan
26376;BME280;30544;42.196;24.336;2023-04-20T02:58:32;98715.13;;;13.35;nan
26376;BME280;30544;42.196;24.336;2023-04-20T03:01:00;98709.28;;;13.31;nan
26376;BME280;30544;42.196;24.336;2023-04-20T03:03:28;98715.41;;;13.38;nan
26376;BME280;30544;42.196;24.336;2023-04-20T03:05:56;98723.50;;;13.45;nan
26376;BME280;30544;42.196;24.336;2023-04-20T03:08:22;98722.38;;;13.36;nan
26376;BME280;30544;42.196;24.336;2023-04-20T03:10:49;98715.97;;;13.45;nan
26376;BME280;30544;42.196;24.336;2023-04-20T03:13:16;98716.22;;;13.39;nan
26376;BME280;30544;42.196;24.336;2023-04-20T03:15:43;98714.31;;;13.44;nan
26376;BME280;30544;42.196;24.336;2023-04-20T03:18:10;98717.06;;;13.39;nan
26376;BME280;30544;42.196;24.336;2023-04-20T03:20:36;98714.31;;;13.44;nan
26376;BME280;30544;42.196;24.336;2023-04-20T03:23:05;98715.94;;;13.55;nan
26376;BME280;30544;42.196;24.336;2023-04-20T03:25:31;98712.88;;;13.57;nan
26376;BME280;30544;42.196;24.336;2023-04-20T03:27:58;98708.44;;;13.51;nan
26376;BME280;30544;42.196;24.336;2023-04-20T03:30:25;98719.88;;;13.49;nan
26376;BME280;30544;42.196;24.336;2023-04-20T03:32:52;98709.28;;;13.51;nan
26376;BME280;30544;42.196;24.336;2023-04-20T03:35:18;98710.09;;;13.57;nan
26376;BME280;30544;42.196;24.336;2023-04-20T03:37:46;98714.28;;;13.65;nan
26376;BME280;30544;42.196;24.336;2023-04-20T03:40:14;98724.88;;;13.52;nan
26376;BME280;30544;42.196;24.336;2023-04-20T03:42:41;98711.78;;;13.53;nan
26376;BME280;30544;42.196;24.336;2023-04-20T03:45:08;98714.28;;;13.65;nan
26376;BME280;30544;42.196;24.336;2023-04-20T03:47:35;98712.59;;;13.74;nan
26376;BME280;30544;42.196;24.336;2023-04-20T03:50:02;98712.63;;;13.64;nan
26376;BME280;30544;42.196;24.336;2023-04-20T03:52:30;98719.28;;;13.58;nan
26376;BME280;30544;42.196;24.336;2023-04-20T03:54:56;98719.88;;;13.49;nan
26376;BME280;30544;42.196;24.336;2023-04-20T03:57:24;98725.97;;;13.41;nan
26376;BME280;30544;42.196;24.336;2023-04-20T03:59:51;98725.44;;;13.29;nan
26376;BME280;30544;42.196;24.336;2023-04-20T04:02:18;98724.31;;;13.40;nan
26376;BME280;30544;42.196;24.336;2023-04-20T04:04:46;98722.63;;;13.75;nan
26376;BME280;30544;42.196;24.336;2023-04-20T04:07:13;98723.75;;;13.84;nan
26376;BME280;30544;42.196;24.336;2023-04-20T04:09:40;98718.16;;;13.89;nan
26376;BME280;30544;42.196;24.336;2023-04-20T04:12:07;98729.84;;;13.91;nan
26376;BME280;30544;42.196;24.336;2023-04-20T04:14:35;98730.69;;;13.97;nan
26376;BME280;30544;42.196;24.336;2023-04-20T04:17:02;98738.16;;;14.22;nan
26376;BME280;30544;42.196;24.336;2023-04-20T04:19:28;98739.59;;;13.99;nan
26376;BME280;30544;42.196;24.336;2023-04-20T04:21:55;98735.66;;;14.15;nan
26376;BME280;30544;42.196;24.336;2023-04-20T04:24:22;98742.91;;;14.21;nan
26376;BME280;30544;42.196;24.336;2023-04-20T04:26:48;98737.38;;;14.01;nan
26376;BME280;30544;42.196;24.336;2023-04-20T04:29:15;98739.00;;;14.22;nan
26376;BME280;30544;42.196;24.336;2023-04-20T04:31:44;98729.19;;;14.35;nan
26376;BME280;30544;42.196;24.336;2023-04-20T04:34:11;98739.53;;;14.44;nan
26376;BME280;30544;42.196;24.336;2023-04-20T04:36:38;98735.03;;;14.38;nan
26376;BME280;30544;42.196;24.336;2023-04-20T04:39:04;98730.28;;;14.49;nan
26376;BME280;30544;42.196;24.336;2023-04-20T04:41:31;98738.09;;;14.42;nan
26376;BME280;30544;42.196;24.336;2023-04-20T04:43:58;98742.31;;;14.44;nan
26376;BME280;30544;42.196;24.336;2023-04-20T04:46:25;98739.78;;;14.48;nan
26376;BME280;30544;42.196;24.336;2023-04-20T04:48:54;98742.03;;;14.46;nan
26376;BME280;30544;42.196;24.336;2023-04-20T04:51:21;98744.00;;;14.30;nan
26376;BME280;30544;42.196;24.336;2023-04-20T04:53:47;98744.81;;;14.36;nan
26376;BME280;30544;42.196;24.336;2023-04-20T04:56:14;98741.72;;;14.53;nan
26376;BME280;30544;42.196;24.336;2023-04-20T04:58:42;98752.56;;;14.59;nan
26376;BME280;30544;42.196;24.336;2023-04-20T05:01:09;98757.53;;;14.72;nan
26376;BME280;30544;42.196;24.336;2023-04-20T05:03:36;98757.78;;;14.81;nan
26376;BME280;30544;42.196;24.336;2023-04-20T05:06:05;98763.09;;;14.83;nan
26376;BME280;30544;42.196;24.336;2023-04-20T05:08:32;98766.16;;;14.76;nan
26376;BME280;30544;42.196;24.336;2023-04-20T05:10:59;98761.16;;;14.73;nan
26376;BME280;30544;42.196;24.336;2023-04-20T05:13:25;98764.81;;;14.68;nan
26376;BME280;30544;42.196;24.336;2023-04-20T05:15:52;98765.81;;;14.98;nan
26376;BME280;30544;42.196;24.336;2023-04-20T05:18:19;98765.22;;;15.01;nan
26376;BME280;30544;42.196;24.336;2023-04-20T05:20:46;98771.00;;;15.15;nan
26376;BME280;30544;42.196;24.336;2023-04-20T05:23:14;98770.34;;;15.28;nan
26376;BME280;30544;42.196;24.336;2023-04-20T05:25:41;98769.00;;;15.20;nan
26376;BME280;30544;42.196;24.336;2023-04-20T05:28:08;98777.84;;;15.38;nan
26376;BME280;30544;42.196;24.336;2023-04-20T05:30:34;98774.78;;;15.34;nan
26376;BME280;30544;42.196;24.336;2023-04-20T05:33:04;98771.66;;;15.41;nan
26376;BME280;30544;42.196;24.336;2023-04-20T05:35:30;98767.69;;;15.52;nan
26376;BME280;30544;42.196;24.336;2023-04-20T05:37:57;98769.56;;;15.61;nan
26376;BME280;30544;42.196;24.336;2023-04-20T05:40:28;98758.69;;;15.65;nan
26376;BME280;30544;42.196;24.336;2023-04-20T05:42:55;98759.47;;;15.71;nan
26376;BME280;30544;42.196;24.336;2023-04-20T05:45:21;98764.09;;;15.85;nan
26376;BME280;30544;42.196;24.336;2023-04-20T05:47:52;98761.84;;;15.87;nan
26376;BME280;30544;42.196;24.336;2023-04-20T05:50:20;98766.06;;;15.85;nan
26376;BME280;30544;42.196;24.336;2023-04-20T05:52:47;98753.78;;;16.10;nan
26376;BME280;30544;42.196;24.336;2023-04-20T05:55:14;98763.44;;;16.22;nan
26376;BME280;30544;42.196;24.336;2023-04-20T05:57:42;98756.03;;;16.37;nan
26376;BME280;30544;42.196;24.336;2023-04-20T06:00:09;98761.91;;;16.35;nan
26376;BME280;30544;42.196;24.336;2023-04-20T06:02:38;98762.91;;;16.44;nan
26376;BME280;30544;42.196;24.336;2023-04-20T06:05:06;98762.53;;;16.32;nan
26376;BME280;30544;42.196;24.336;2023-04-20T06:07:33;98760.09;;;16.49;nan
26376;BME280;30544;42.196;24.336;2023-04-20T06:10:00;98762.41;;;16.66;nan
26376;BME280;30544;42.196;24.336;2023-04-20T06:12:27;98760.28;;;16.82;nan
26376;BME280;30544;42.196;24.336;2023-04-20T06:14:56;98755.50;;;16.82;nan
26376;BME280;30544;42.196;24.336;2023-04-20T06:17:23;98761.47;;;16.76;nan
26376;BME280;30544;42.196;24.336;2023-04-20T06:19:51;98755.00;;;16.80;nan
26376;BME280;30544;42.196;24.336;2023-04-20T06:22:18;98756.16;;;16.74;nan
26376;BME280;30544;42.196;24.336;2023-04-20T06:24:45;98754.28;;;16.70;nan
26376;BME280;30544;42.196;24.336;2023-04-20T06:27:12;98757.09;;;16.65;nan
26376;BME280;30544;42.196;24.336;2023-04-20T06:29:39;98755.22;;;16.84;nan
26376;BME280;30544;42.196;24.336;2023-04-20T06:32:07;98764.94;;;16.68;nan
26376;BME280;30544;42.196;24.336;2023-04-20T06:34:34;98764.97;;;16.87;nan
26376;BME280;30544;42.196;24.336;2023-04-20T06:37:00;98759.06;;;16.64;nan
26376;BME280;30544;42.196;24.336;2023-04-20T06:39:27;98758.66;;;17.00;nan
26376;BME280;30544;42.196;24.336;2023-04-20T06:41:54;98765.31;;;17.04;nan
26376;BME280;30544;42.196;24.336;2023-04-20T06:44:21;98768.94;;;17.04;nan
26376;BME280;30544;42.196;24.336;2023-04-20T06:46:47;98768.88;;;17.28;nan
26376;BME280;30544;42.196;24.336;2023-04-20T06:49:15;98771.44;;;17.25;nan
26376;BME280;30544;42.196;24.336;2023-04-20T06:51:42;98772.19;;;17.11;nan
26376;BME280;30544;42.196;24.336;2023-04-20T06:54:09;98775.97;;;17.02;nan
26376;BME280;30544;42.196;24.336;2023-04-20T06:56:36;98769.56;;;17.01;nan
26376;BME280;30544;42.196;24.336;2023-04-20T06:59:02;98769.13;;;16.89;nan
26376;BME280;30544;42.196;24.336;2023-04-20T07:01:29;98769.97;;;16.90;nan
26376;BME280;30544;42.196;24.336;2023-04-20T07:03:56;98760.59;;;16.80;nan
26376;BME280;30544;42.196;24.336;2023-04-20T07:06:24;98773.91;;;16.89;nan
26376;BME280;30544;42.196;24.336;2023-04-20T07:08:52;98764.78;;;17.02;nan
26376;BME280;30544;42.196;24.336;2023-04-20T07:11:19;98766.16;;;17.23;nan
26376;BME280;30544;42.196;24.336;2023-04-20T07:13:45;98764.72;;;17.26;nan
26376;BME280;30544;42.196;24.336;2023-04-20T07:16:14;98762.50;;;17.79;nan
26376;BME280;30544;42.196;24.336;2023-04-20T07:18:41;98747.34;;;17.80;nan
26376;BME280;30544;42.196;24.336;2023-04-20T07:21:08;98754.28;;;18.01;nan
26376;BME280;30544;42.196;24.336;2023-04-20T07:23:36;98750.38;;;18.30;nan
26376;BME280;30544;42.196;24.336;2023-04-20T07:26:03;98758.00;;;17.97;nan
26376;BME280;30544;42.196;24.336;2023-04-20T07:28:30;98755.78;;;18.26;nan
26376;BME280;30544;42.196;24.336;2023-04-20T07:30:56;98766.88;;;18.04;nan
26376;BME280;30544;42.196;24.336;2023-04-20T07:33:23;98754.25;;;18.34;nan
26376;BME280;30544;42.196;24.336;2023-04-20T07:35:50;98747.97;;;18.23;nan
26376;BME280;30544;42.196;24.336;2023-04-20T07:38:17;98745.00;;;18.47;nan
26376;BME280;30544;42.196;24.336;2023-04-20T07:40:45;98758.16;;;18.66;nan
26376;BME280;30544;42.196;24.336;2023-04-20T07:43:12;98745.41;;;18.41;nan
26376;BME280;30544;42.196;24.336;2023-04-20T07:45:39;98751.72;;;18.65;nan
26376;BME280;30544;42.196;24.336;2023-04-20T07:48:06;98747.41;;;18.54;nan
26376;BME280;30544;42.196;24.336;2023-04-20T07:50:33;98753.38;;;18.66;nan
26376;BME280;30544;42.196;24.336;2023-04-20T07:53:00;98743.50;;;18.82;nan
26376;BME280;30544;42.196;24.336;2023-04-20T07:55:27;98741.16;;;18.57;nan
26376;BME280;30544;42.196;24.336;2023-04-20T07:57:55;98740.09;;;19.08;nan
26376;BME280;30544;42.196;24.336;2023-04-20T08:00:23;98736.03;;;19.14;nan
26376;BME280;30544;42.196;24.336;2023-04-20T08:02:50;98732.16;;;19.23;nan
26376;BME280;30544;42.196;24.336;2023-04-20T08:05:16;98732.66;;;19.39;nan
26376;BME280;30544;42.196;24.336;2023-04-20T08:07:43;98737.28;;;19.21;nan
26376;BME280;30544;42.196;24.336;2023-04-20T08:10:10;98740.94;;;19.08;nan
26376;BME280;30544;42.196;24.336;2023-04-20T08:12:37;98749.00;;;18.87;nan
26376;BME280;30544;42.196;24.336;2023-04-20T08:15:07;98738.38;;;18.71;nan
26376;BME280;30544;42.196;24.336;2023-04-20T08:17:34;98742.22;;;18.88;nan
26376;BME280;30544;42.196;24.336;2023-04-20T08:20:01;98742.31;;;18.56;nan
26376;BME280;30544;42.196;24.336;2023-04-20T08:22:29;98748.34;;;18.90;nan
26376;BME280;30544;42.196;24.336;2023-04-20T08:24:56;98740.75;;;18.91;nan
26376;BME280;30544;42.196;24.336;2023-04-20T08:27:23;98740.13;;;18.94;nan
26376;BME280;30544;42.196;24.336;2023-04-20T08:29:51;98741.78;;;19.09;nan
26376;BME280;30544;42.196;24.336;2023-04-20T08:32:25;98744.03;;;19.20;nan
26376;BME280;30544;42.196;24.336;2023-04-20T08:34:54;98733.53;;;19.12;nan
26376;BME280;30544;42.196;24.336;2023-04-20T08:37:20;98730.00;;;19.20;nan
26376;BME280;30544;42.196;24.336;2023-04-20T08:39:49;98731.50;;;19.40;nan
26376;BME280;30544;42.196;24.336;2023-04-20T08:42:15;98725.72;;;19.59;nan
26376;BME280;30544;42.196;24.336;2023-04-20T08:44:42;98720.75;;;19.56;nan
26376;BME280;30544;42.196;24.336;2023-04-20T08:47:09;98717.75;;;19.75;nan
26376;BME280;30544;42.196;24.336;2023-04-20T08:49:38;98725.63;;;19.50;nan
26376;BME280;30544;42.196;24.336;2023-04-20T08:52:05;98729.69;;;19.58;nan
26376;BME280;30544;42.196;24.336;2023-04-20T08:54:35;98728.69;;;19.40;nan
26376;BME280;30544;42.196;24.336;2023-04-20T08:57:05;98714.91;;;19.52;nan
26376;BME280;30544;42.196;24.336;2023-04-20T08:59:32;98728.22;;;19.61;nan
26376;BME280;30544;42.196;24.336;2023-04-20T09:02:09;98717.63;;;19.44;nan
26376;BME280;30544;42.196;24.336;2023-04-20T09:04:38;98720.75;;;19.42;nan
26376;BME280;30544;42.196;24.336;2023-04-20T09:07:06;98709.63;;;19.73;nan
26376;BME280;30544;42.196;24.336;2023-04-20T09:09:33;98712.25;;;19.70;nan
26376;BME280;30544;42.196;24.336;2023-04-20T09:12:00;98722.53;;;19.74;nan
26376;BME280;30544;42.196;24.336;2023-04-20T09:14:41;98703.53;;;19.80;nan
26376;BME280;30544;42.196;24.336;2023-04-20T09:17:08;98711.34;;;19.61;nan
26376;BME280;30544;42.196;24.336;2023-04-20T09:19:40;98707.88;;;19.64;nan
26376;BME280;30544;42.196;24.336;2023-04-20T09:22:09;98709.25;;;19.66;nan
26376;BME280;30544;42.196;24.336;2023-04-20T09:24:37;98706.63;;;19.34;nan
26376;BME280;30544;42.196;24.336;2023-04-20T09:27:14;98712.72;;;19.13;nan
26376;BME280;30544;42.196;24.336;2023-04-20T09:29:41;98707.25;;;19.31;nan
26376;BME280;30544;42.196;24.336;2023-04-20T09:32:20;98707.22;;;19.44;nan
26376;BME280;30544;42.196;24.336;2023-04-20T09:34:48;98713.38;;;18.97;nan
26376;BME280;30544;42.196;24.336;2023-04-20T09:37:15;98701.44;;;19.27;nan
26376;BME280;30544;42.196;24.336;2023-04-20T09:39:42;98699.66;;;19.31;nan
26376;BME280;30544;42.196;24.336;2023-04-20T09:42:11;98704.06;;;19.46;nan
26376;BME280;30544;42.196;24.336;2023-04-20T09:44:38;98698.56;;;19.55;nan
26376;BME280;30544;42.196;24.336;2023-04-20T09:47:06;98693.78;;;19.19;nan
26376;BME280;30544;42.196;24.336;2023-04-20T09:49:33;98698.81;;;18.94;nan
26376;BME280;30544;42.196;24.336;2023-04-20T09:52:02;98691.84;;;19.28;nan
26376;BME280;30544;42.196;24.336;2023-04-20T09:54:30;98688.63;;;19.79;nan
26376;BME280;30544;42.196;24.336;2023-04-20T09:56:58;98689.31;;;19.54;nan
26376;BME280;30544;42.196;24.336;2023-04-20T09:59:26;98681.63;;;19.68;nan
26376;BME280;30544;42.196;24.336;2023-04-20T10:01:54;98689.44;;;19.71;nan
26376;BME280;30544;42.196;24.336;2023-04-20T10:04:21;98676.56;;;19.57;nan
26376;BME280;30544;42.196;24.336;2023-04-20T10:06:51;98684.56;;;19.63;nan
26376;BME280;30544;42.196;24.336;2023-04-20T10:09:22;98676.44;;;19.62;nan
26376;BME280;30544;42.196;24.336;2023-04-20T10:11:48;98675.13;;;19.90;nan
26376;BME280;30544;42.196;24.336;2023-04-20T10:14:17;98667.81;;;20.11;nan
26376;BME280;30544;42.196;24.336;2023-04-20T10:16:45;98663.63;;;20.00;nan
26376;BME280;30544;42.196;24.336;2023-04-20T10:19:12;98666.25;;;20.76;nan
26376;BME280;30544;42.196;24.336;2023-04-20T10:21:46;98661.03;;;21.44;nan
26376;BME280;30544;42.196;24.336;2023-04-20T10:24:13;98654.97;;;21.97;nan
26376;BME280;30544;42.196;24.336;2023-04-20T10:26:42;98661.00;;;21.78;nan
26376;BME280;30544;42.196;24.336;2023-04-20T10:29:21;98649.75;;;21.26;nan
26376;BME280;30544;42.196;24.336;2023-04-20T10:31:48;98651.50;;;22.09;nan
26376;BME280;30544;42.196;24.336;2023-04-20T10:34:15;98658.63;;;22.06;nan
26376;BME280;30544;42.196;24.336;2023-04-20T10:36:43;98652.19;;;21.88;nan
26376;BME280;30544;42.196;24.336;2023-04-20T10:39:13;98653.31;;;21.96;nan
26376;BME280;30544;42.196;24.336;2023-04-20T10:41:53;98652.66;;;22.08;nan
26376;BME280;30544;42.196;24.336;2023-04-20T10:44:22;98656.78;;;22.10;nan
26376;BME280;30544;42.196;24.336;2023-04-20T10:46:49;98658.53;;;22.32;nan
26376;BME280;30544;42.196;24.336;2023-04-20T10:49:17;98649.72;;;22.34;nan
26376;BME280;30544;42.196;24.336;2023-04-20T10:51:48;98657.34;;;22.42;nan
26376;BME280;30544;42.196;24.336;2023-04-20T10:54:16;98652.56;;;22.63;nan
26376;BME280;30544;42.196;24.336;2023-04-20T10:56:44;98656.16;;;22.43;nan
26376;BME280;30544;42.196;24.336;2023-04-20T10:59:14;98652.72;;;22.37;nan
26376;BME280;30544;42.196;24.336;2023-04-20T11:01:41;98646.47;;;22.14;nan
26376;BME280;30544;42.196;24.336;2023-04-20T11:04:09;98649.06;;;21.64;nan
26376;BME280;30544;42.196;24.336;2023-04-20T11:06:37;98649.91;;;21.56;nan
26376;BME280;30544;42.196;24.336;2023-04-20T11:09:15;98648.88;;;20.91;nan
26376;BME280;30544;42.196;24.336;2023-04-20T11:11:42;98641.78;;;21.28;nan
26376;BME280;30544;42.196;24.336;2023-04-20T11:14:12;98644.59;;;21.63;nan
26376;BME280;30544;42.196;24.336;2023-04-20T11:16:39;98632.13;;;21.64;nan
26376;BME280;30544;42.196;24.336;2023-04-20T11:19:06;98631.00;;;21.56;nan
26376;BME280;30544;42.196;24.336;2023-04-20T11:21:36;98631.56;;;21.97;nan
26376;BME280;30544;42.196;24.336;2023-04-20T11:24:04;98628.72;;;22.14;nan
26376;BME280;30544;42.196;24.336;2023-04-20T11:26:38;98625.88;;;22.14;nan
26376;BME280;30544;42.196;24.336;2023-04-20T11:29:05;98620.59;;;21.95;nan
26376;BME280;30544;42.196;24.336;2023-04-20T11:31:33;98618.38;;;22.27;nan
26376;BME280;30544;42.196;24.336;2023-04-20T11:34:01;98609.41;;;22.25;nan
26376;BME280;30544;42.196;24.336;2023-04-20T11:36:28;98612.84;;;21.83;nan
26376;BME280;30544;42.196;24.336;2023-04-20T11:39:06;98609.81;;;22.06;nan
26376;BME280;30544;42.196;24.336;2023-04-20T11:41:33;98604.06;;;22.61;nan
26376;BME280;30544;42.196;24.336;2023-04-20T11:44:00;98603.53;;;22.68;nan
26376;BME280;30544;42.196;24.336;2023-04-20T11:46:26;98602.28;;;22.77;nan
26376;BME280;30544;42.196;24.336;2023-04-20T11:48:54;98593.81;;;22.77;nan
26376;BME280;30544;42.196;24.336;2023-04-20T11:51:24;98595.13;;;22.50;nan
26376;BME280;30544;42.196;24.336;2023-04-20T11:53:51;98588.97;;;22.78;nan
26376;BME280;30544;42.196;24.336;2023-04-20T11:56:17;98585.69;;;22.76;nan
26376;BME280;30544;42.196;24.336;2023-04-20T11:58:44;98582.09;;;22.37;nan
26376;BME280;30544;42.196;24.336;2023-04-20T12:01:12;98588.28;;;22.81;nan
26376;BME280;30544;42.196;24.336;2023-04-20T12:03:41;98587.72;;;22.67;nan
26376;BME280;30544;42.196;24.336;2023-04-20T12:06:09;98577.69;;;22.48;nan
26376;BME280;30544;42.196;24.336;2023-04-20T12:08:36;98576.13;;;22.89;nan
26376;BME280;30544;42.196;24.336;2023-04-20T12:11:03;98584.31;;;22.82;nan
26376;BME280;30544;42.196;24.336;2023-04-20T12:13:29;98575.97;;;22.35;nan
26376;BME280;30544;42.196;24.336;2023-04-20T12:15:56;98581.31;;;22.78;nan
26376;BME280;30544;42.196;24.336;2023-04-20T12:18:23;98575.53;;;22.75;nan
26376;BME280;30544;42.196;24.336;2023-04-20T12:20:50;98571.53;;;22.76;nan
26376;BME280;30544;42.196;24.336;2023-04-20T12:23:18;98566.34;;;23.07;nan
26376;BME280;30544;42.196;24.336;2023-04-20T12:25:45;98560.94;;;23.35;nan
26376;BME280;30544;42.196;24.336;2023-04-20T12:28:12;98572.50;;;22.80;nan
26376;BME280;30544;42.196;24.336;2023-04-20T12:30:39;98569.38;;;23.02;nan
26376;BME280;30544;42.196;24.336;2023-04-20T12:33:05;98557.63;;;23.13;nan
26376;BME280;30544;42.196;24.336;2023-04-20T12:35:32;98558.63;;;22.96;nan
26376;BME280;30544;42.196;24.336;2023-04-20T12:37:59;98560.16;;;22.64;nan
26376;BME280;30544;42.196;24.336;2023-04-20T12:40:27;98563.19;;;22.59;nan
26376;BME280;30544;42.196;24.336;2023-04-20T12:42:54;98555.38;;;22.35;nan
26376;BME280;30544;42.196;24.336;2023-04-20T12:45:20;98557.75;;;22.24;nan
26376;BME280;30544;42.196;24.336;2023-04-20T12:47:47;98558.16;;;21.97;nan
26376;BME280;30544;42.196;24.336;2023-04-20T12:50:14;98551.41;;;21.89;nan
26376;BME280;30544;42.196;24.336;2023-04-20T12:52:41;98556.50;;;21.57;nan
26376;BME280;30544;42.196;24.336;2023-04-20T12:55:08;98566.06;;;21.65;nan
26376;BME280;30544;42.196;24.336;2023-04-20T12:57:37;98557.03;;;21.08;nan
26376;BME280;30544;42.196;24.336;2023-04-20T13:00:05;98556.53;;;20.97;nan
26376;BME280;30544;42.196;24.336;2023-04-20T13:02:32;98560.50;;;21.13;nan
26376;BME280;30544;42.196;24.336;2023-04-20T13:05:00;98563.50;;;21.25;nan
26376;BME280;30544;42.196;24.336;2023-04-20T13:07:39;98569.97;;;21.17;nan
26376;BME280;30544;42.196;24.336;2023-04-20T13:10:08;98567.03;;;20.31;nan
26376;BME280;30544;42.196;24.336;2023-04-20T13:12:36;98567.75;;;19.97;nan